createdAt,value
2023-05-12T00:01:59.591Z,99.90
2023-05-12T00:04:33.901Z,99.90
2023-05-12T00:07:08.898Z,99.90
2023-05-12T00:09:42.961Z,99.90
2023-05-12T00:12:18.485Z,99.90
2023-05-12T00:14:52.560Z,99.90
2023-05-12T00:17:27.907Z,99.90
2023-05-12T00:20:02.580Z,99.90
2023-05-12T00:22:36.907Z,99.90
2023-05-12T00:25:11.222Z,99.90
2023-05-12T00:27:46.588Z,99.90
2023-05-12T00:30:21.320Z,99.90
2023-05-12T00:32:55.752Z,99.90
2023-05-12T00:35:30.021Z,99.90
2023-05-12T00:38:04.166Z,99.90
2023-05-12T00:40:38.254Z,99.90
2023-05-12T00:43:13.721Z,99.90
2023-05-12T00:45:48.292Z,99.90
2023-05-12T00:48:22.627Z,99.90
2023-05-12T00:50:57.736Z,99.90
2023-05-12T00:53:45.008Z,99.90
2023-05-12T00:56:23.006Z,99.90
2023-05-12T00:58:58.512Z,99.90
2023-05-12T01:01:32.760Z,99.90
2023-05-12T01:04:07.150Z,99.90
2023-05-12T01:06:57.998Z,99.90
2023-05-12T01:09:32.187Z,99.90
2023-05-12T01:12:07.299Z,99.90
2023-05-12T01:14:43.199Z,99.90
2023-05-12T01:17:21.257Z,99.90
2023-05-12T01:19:58.562Z,99.90
2023-05-12T01:22:34.106Z,99.90
2023-05-12T01:25:12.531Z,99.90
2023-05-12T01:27:48.585Z,99.90
2023-05-12T01:30:24.589Z,99.90
2023-05-12T01:32:59.390Z,99.90
2023-05-12T01:35:33.607Z,99.90
2023-05-12T01:38:07.738Z,99.90
2023-05-12T01:40:41.949Z,99.90
2023-05-12T01:43:17.457Z,99.90
2023-05-12T01:45:51.690Z,99.90
2023-05-12T01:48:25.717Z,99.90
2023-05-12T01:51:01.157Z,99.90
2023-05-12T01:53:35.286Z,99.90
2023-05-12T01:56:09.393Z,99.90
2023-05-12T01:58:44.890Z,99.90
2023-05-12T02:01:18.983Z,99.90
2023-05-12T02:03:53.169Z,99.90
2023-05-12T02:06:28.589Z,99.90
2023-05-12T02:09:02.722Z,99.90
2023-05-12T02:11:37.487Z,99.90
2023-05-12T02:14:12.965Z,99.90
2023-05-12T02:16:47.398Z,99.90
2023-05-12T02:19:21.610Z,99.90
2023-05-12T02:21:55.677Z,99.90
2023-05-12T02:24:29.755Z,99.90
2023-05-12T02:27:03.888Z,99.90
2023-05-12T02:29:39.764Z,99.90
2023-05-12T02:32:13.894Z,99.90
2023-05-12T02:34:48.005Z,99.90
2023-05-12T02:37:22.176Z,99.90
2023-05-12T02:39:56.417Z,99.90
2023-05-12T02:42:35.386Z,99.90
2023-05-12T02:45:12.664Z,99.90
2023-05-12T02:47:46.780Z,99.90
2023-05-12T02:50:21.816Z,99.90
2023-05-12T02:52:56.198Z,99.90
2023-05-12T02:55:30.862Z,99.90
2023-05-12T02:58:04.942Z,99.90
2023-05-12T03:00:40.356Z,99.90
2023-05-12T03:03:14.634Z,99.90
2023-05-12T03:05:49.064Z,99.90
2023-05-12T03:08:23.683Z,99.90
2023-05-12T03:10:57.872Z,99.90
2023-05-12T03:13:31.953Z,99.90
2023-05-12T03:16:08.182Z,99.90
2023-05-12T03:18:42.334Z,99.90
2023-05-12T03:21:16.652Z,99.90
2023-05-12T03:23:50.733Z,99.90
2023-05-12T03:26:24.963Z,99.90
2023-05-12T03:28:59.047Z,99.90
2023-05-12T03:31:34.637Z,99.90
2023-05-12T03:34:08.713Z,99.90
2023-05-12T03:36:43.353Z,99.90
2023-05-12T03:39:17.334Z,99.90
2023-05-12T03:41:51.547Z,99.90
2023-05-12T03:44:25.880Z,99.90
2023-05-12T03:47:01.731Z,99.90
2023-05-12T03:49:35.832Z,99.90
2023-05-12T03:52:10.044Z,99.90
2023-05-12T03:54:44.084Z,99.90
2023-05-12T03:57:18.357Z,99.90
2023-05-12T03:59:52.554Z,99.90
2023-05-12T04:02:28.204Z,99.90
2023-05-12T04:05:02.372Z,99.90
2023-05-12T04:07:37.017Z,99.90
2023-05-12T04:10:11.634Z,99.90
2023-05-12T04:12:45.725Z,99.90
2023-05-12T04:15:21.169Z,99.90
2023-05-12T04:17:56.970Z,99.90
2023-05-12T04:20:31.072Z,99.90
2023-05-12T04:23:05.187Z,99.90
2023-05-12T04:25:41.107Z,99.90
2023-05-12T04:28:16.144Z,99.90
2023-05-12T04:30:50.504Z,99.90
2023-05-12T04:33:26.037Z,99.90
2023-05-12T04:36:01.494Z,99.90
2023-05-12T04:38:35.653Z,99.90
2023-05-12T04:41:09.781Z,99.90
2023-05-12T04:46:21.084Z,99.90
2023-05-12T04:48:56.601Z,99.90
2023-05-12T04:51:31.967Z,99.90
2023-05-12T04:54:06.202Z,99.90
2023-05-12T04:56:40.467Z,99.90
2023-05-12T04:59:15.883Z,99.90
2023-05-12T05:01:50.160Z,99.90
2023-05-12T05:04:25.871Z,99.90
2023-05-12T05:06:59.976Z,99.90
2023-05-12T05:09:36.196Z,99.90
2023-05-12T05:12:10.985Z,99.90
2023-05-12T05:14:45.087Z,99.90
2023-05-12T05:17:19.167Z,99.90
2023-05-12T05:19:59.036Z,99.90
2023-05-12T05:22:33.799Z,99.90
2023-05-12T05:25:10.101Z,99.90
2023-05-12T05:27:44.286Z,99.90
2023-05-12T05:30:18.355Z,99.90
2023-05-12T05:32:52.475Z,99.90
2023-05-12T05:35:27.942Z,99.90
2023-05-12T05:38:02.210Z,99.90
2023-05-12T05:40:51.487Z,99.90
2023-05-12T05:43:26.743Z,99.90
2023-05-12T05:46:00.855Z,99.90
2023-05-12T05:48:36.455Z,99.90
2023-05-12T05:51:12.500Z,99.90
2023-05-12T05:53:46.735Z,99.90
2023-05-12T05:56:20.813Z,99.90
2023-05-12T05:58:55.010Z,99.90
2023-05-12T06:01:29.161Z,99.90
2023-05-12T06:04:03.636Z,99.90
2023-05-12T06:06:39.382Z,99.90
2023-05-12T06:09:15.445Z,99.90
2023-05-12T06:11:49.656Z,99.90
2023-05-12T06:14:23.936Z,99.90
2023-05-12T06:16:58.171Z,99.90
2023-05-12T06:19:32.317Z,99.90
2023-05-12T06:22:07.924Z,99.90
2023-05-12T06:24:42.254Z,99.90
2023-05-12T06:27:17.125Z,99.90
2023-05-12T06:29:52.609Z,99.90
2023-05-12T06:32:26.833Z,99.90
2023-05-12T06:35:01.107Z,99.90
2023-05-12T06:37:36.692Z,99.90
2023-05-12T06:40:11.597Z,99.90
2023-05-12T06:42:45.873Z,99.90
2023-05-12T06:45:20.972Z,99.90
2023-05-12T06:47:55.564Z,99.90
2023-05-12T06:50:29.689Z,99.90
2023-05-12T06:53:06.358Z,99.90
2023-05-12T06:55:40.503Z,99.90
2023-05-12T06:58:14.588Z,99.90
2023-05-12T07:00:49.046Z,99.90
2023-05-12T07:03:23.282Z,99.90
2023-05-12T07:05:57.469Z,99.90
2023-05-12T07:08:33.047Z,99.90
2023-05-12T07:11:07.104Z,99.90
2023-05-12T07:13:41.244Z,99.90
2023-05-12T07:16:15.793Z,99.90
2023-05-12T07:18:50.041Z,99.90
2023-05-12T07:21:24.468Z,99.90
2023-05-12T07:24:00.345Z,99.90
2023-05-12T07:26:34.498Z,99.90
2023-05-12T07:29:13.434Z,99.90
2023-05-12T07:31:48.105Z,99.90
2023-05-12T07:34:22.253Z,99.50
2023-05-12T07:36:56.566Z,99.50
2023-05-12T07:39:32.478Z,99.20
2023-05-12T07:42:07.424Z,98.50
2023-05-12T07:44:41.465Z,97.80
2023-05-12T07:47:16.072Z,97.50
2023-05-12T07:49:50.203Z,97.60
2023-05-12T07:52:24.302Z,97.20
2023-05-12T07:54:59.822Z,96.90
2023-05-12T07:57:33.950Z,96.70
2023-05-12T08:00:11.133Z,96.20
2023-05-12T08:02:45.769Z,96.20
2023-05-12T08:05:20.221Z,96.50
2023-05-12T08:07:54.487Z,95.80
2023-05-12T08:10:32.578Z,95.30
2023-05-12T08:13:06.737Z,95.50
2023-05-12T08:15:40.915Z,94.90
2023-05-12T08:18:15.209Z,95.30
2023-05-12T08:20:50.845Z,95.50
2023-05-12T08:23:24.944Z,95.30
2023-05-12T08:26:00.438Z,95.60
2023-05-12T08:28:34.543Z,94.70
2023-05-12T08:31:08.816Z,94.60
2023-05-12T08:33:43.157Z,94.70
2023-05-12T08:36:17.386Z,95.00
2023-05-12T08:38:51.718Z,95.30
2023-05-12T08:41:43.650Z,94.80
2023-05-12T08:44:20.358Z,94.00
2023-05-12T08:46:58.316Z,93.80
2023-05-12T08:49:34.555Z,93.90
2023-05-12T08:52:10.489Z,93.50
2023-05-12T08:54:55.456Z,93.70
2023-05-12T08:57:32.664Z,93.80
2023-05-12T09:00:10.151Z,93.50
2023-05-12T09:02:52.870Z,93.10
2023-05-12T09:05:31.028Z,93.30
2023-05-12T09:08:06.369Z,93.30
2023-05-12T09:10:41.104Z,93.50
2023-05-12T09:13:21.934Z,92.90
2023-05-12T09:15:59.007Z,92.80
2023-05-12T09:18:48.414Z,92.80
2023-05-12T09:21:22.762Z,92.90
2023-05-12T09:23:59.476Z,92.30
2023-05-12T09:26:47.827Z,92.70
2023-05-12T09:29:31.243Z,93.00
2023-05-12T09:32:06.649Z,92.70
2023-05-12T09:34:41.540Z,92.20
2023-05-12T09:37:15.939Z,92.60
2023-05-12T09:40:01.470Z,92.00
2023-05-12T09:42:37.055Z,91.70
2023-05-12T09:45:15.484Z,91.70
2023-05-12T09:47:49.881Z,91.40
2023-05-12T09:50:24.216Z,91.40
2023-05-12T09:53:01.275Z,91.40
2023-05-12T09:55:35.513Z,91.70
2023-05-12T09:58:11.563Z,91.40
2023-05-12T10:03:27.567Z,91.30
2023-05-12T10:06:07.521Z,91.00
2023-05-12T10:08:45.661Z,91.80
2023-05-12T10:11:21.424Z,91.90
2023-05-12T10:13:57.273Z,91.90
2023-05-12T10:16:33.669Z,91.90
2023-05-12T10:19:08.529Z,92.10
2023-05-12T10:21:46.091Z,92.20
2023-05-12T10:24:21.885Z,91.80
2023-05-12T10:26:56.704Z,91.10
2023-05-12T10:29:33.100Z,91.20
2023-05-12T10:32:08.668Z,91.80
2023-05-12T10:34:43.464Z,92.00
2023-05-12T10:37:17.899Z,92.50
2023-05-12T10:39:53.829Z,92.80
2023-05-12T10:42:27.878Z,93.40
2023-05-12T10:45:04.612Z,93.20
2023-05-12T10:47:40.479Z,92.70
2023-05-12T10:50:15.507Z,92.30
2023-05-12T10:52:55.251Z,93.00
2023-05-12T10:55:35.888Z,92.70
2023-05-12T10:58:14.566Z,92.60
2023-05-12T11:00:54.838Z,93.40
2023-05-12T11:03:32.200Z,93.20
2023-05-12T11:06:08.992Z,93.40
2023-05-12T11:08:46.020Z,93.50
2023-05-12T11:11:22.373Z,93.80
2023-05-12T11:13:57.221Z,93.90
2023-05-12T11:16:31.424Z,94.20
2023-05-12T11:19:07.371Z,94.10
2023-05-12T11:21:41.964Z,94.00
2023-05-12T11:24:16.709Z,93.90
2023-05-12T11:26:52.271Z,93.50
2023-05-12T11:29:26.517Z,93.10
2023-05-12T11:32:01.028Z,93.80
2023-05-12T11:34:36.586Z,93.40
2023-05-12T11:37:11.067Z,93.50
2023-05-12T11:39:45.174Z,93.20
2023-05-12T11:42:22.898Z,94.20
2023-05-12T11:44:58.524Z,94.00
2023-05-12T11:47:32.764Z,94.80
2023-05-12T11:50:10.296Z,95.00
2023-05-12T11:52:44.584Z,95.00
2023-05-12T11:55:24.368Z,95.10
2023-05-12T11:58:03.101Z,95.20
2023-05-12T12:00:37.531Z,95.20
2023-05-12T12:03:14.442Z,94.30
2023-05-12T12:06:01.840Z,93.70
2023-05-12T12:08:38.774Z,93.60
2023-05-12T12:11:12.888Z,93.50
2023-05-12T12:13:56.320Z,94.00
2023-05-12T12:16:32.592Z,94.10
2023-05-12T12:19:07.557Z,94.10
2023-05-12T12:21:43.074Z,93.80
2023-05-12T12:24:17.527Z,94.10
2023-05-12T12:26:55.038Z,93.90
2023-05-12T12:29:29.187Z,93.00
2023-05-12T12:32:03.309Z,92.90
2023-05-12T12:34:37.690Z,93.10
2023-05-12T12:37:13.338Z,93.50
2023-05-12T12:39:48.080Z,93.00
2023-05-12T12:42:22.296Z,93.10
2023-05-12T12:44:56.798Z,93.40
2023-05-12T12:47:30.973Z,93.60
2023-05-12T12:50:05.780Z,93.80
2023-05-12T12:52:41.265Z,94.00
2023-05-12T12:55:15.462Z,94.10
2023-05-12T12:57:49.586Z,94.30
2023-05-12T13:00:24.563Z,94.60
2023-05-12T13:03:00.293Z,94.70
2023-05-12T13:05:34.811Z,94.80
2023-05-12T13:08:10.330Z,94.60
2023-05-12T13:10:44.620Z,95.50
2023-05-12T13:13:18.714Z,94.10
2023-05-12T13:15:54.218Z,94.30
2023-05-12T13:18:28.396Z,93.70
2023-05-12T13:21:04.438Z,93.70
2023-05-12T13:23:39.935Z,93.50
2023-05-12T13:26:14.691Z,93.30
2023-05-12T13:31:23.419Z,92.50
2023-05-12T13:33:57.487Z,92.30
2023-05-12T13:36:33.750Z,91.90
2023-05-12T13:39:10.302Z,92.30
2023-05-12T13:41:44.412Z,92.70
2023-05-12T13:44:19.452Z,92.50
2023-05-12T13:46:53.642Z,92.00
2023-05-12T13:49:27.826Z,92.00
2023-05-12T13:52:02.070Z,92.10
2023-05-12T13:54:37.560Z,91.70
2023-05-12T13:57:11.807Z,92.00
2023-05-12T13:59:45.976Z,90.70
2023-05-12T14:02:20.124Z,91.60
2023-05-12T14:04:54.356Z,91.60
2023-05-12T14:07:29.279Z,91.10
2023-05-12T14:10:04.975Z,91.40
2023-05-12T14:12:39.074Z,91.30
2023-05-12T14:15:26.567Z,91.40
2023-05-12T14:18:07.286Z,91.50
2023-05-12T14:20:41.660Z,91.70
2023-05-12T14:23:15.727Z,91.30
2023-05-12T14:25:51.433Z,91.90
2023-05-12T14:28:25.632Z,91.90
2023-05-12T14:30:59.898Z,91.80
2023-05-12T14:33:34.046Z,91.90
2023-05-12T14:36:09.634Z,91.70
2023-05-12T14:38:43.764Z,91.70
2023-05-12T14:41:19.233Z,91.90
2023-05-12T14:43:53.325Z,91.80
2023-05-12T14:46:27.562Z,92.30
2023-05-12T14:49:01.714Z,92.00
2023-05-12T14:51:35.885Z,91.70
2023-05-12T14:54:18.399Z,91.50
2023-05-12T14:57:00.069Z,91.70
2023-05-12T14:59:34.228Z,91.50
2023-05-12T15:02:09.019Z,91.70
2023-05-12T15:04:43.758Z,91.30
2023-05-12T15:07:17.996Z,91.10
2023-05-12T15:09:52.113Z,90.30
2023-05-12T15:12:27.704Z,90.50
2023-05-12T15:15:04.351Z,90.70
2023-05-12T15:17:38.710Z,90.60
2023-05-12T15:20:13.535Z,90.30
2023-05-12T15:22:49.010Z,90.50
2023-05-12T15:25:23.164Z,90.90
2023-05-12T15:27:58.623Z,91.20
2023-05-12T15:30:32.757Z,91.40
2023-05-12T15:33:07.026Z,91.40
2023-05-12T15:35:41.732Z,91.70
2023-05-12T15:38:15.852Z,91.60
2023-05-12T15:40:50.085Z,91.40
2023-05-12T15:43:25.651Z,92.10
2023-05-12T15:45:59.798Z,92.00
2023-05-12T15:48:34.084Z,92.30
2023-05-12T15:51:08.470Z,92.30
2023-05-12T15:53:42.601Z,92.60
2023-05-12T15:56:16.651Z,92.50
2023-05-12T15:58:52.041Z,92.80
2023-05-12T16:01:26.472Z,92.70
2023-05-12T16:04:00.906Z,92.50
2023-05-12T16:06:35.923Z,92.50
2023-05-12T16:09:10.142Z,92.70
2023-05-12T16:11:44.822Z,92.90
2023-05-12T16:14:21.890Z,92.90
2023-05-12T16:16:56.154Z,93.00
2023-05-12T16:19:30.713Z,92.80
2023-05-12T16:22:05.204Z,93.10
2023-05-12T16:24:39.213Z,93.20
2023-05-12T16:27:13.353Z,93.10
2023-05-12T16:29:50.386Z,93.40
2023-05-12T16:32:24.549Z,93.60
2023-05-12T16:34:59.606Z,93.60
2023-05-12T16:37:33.879Z,93.50
2023-05-12T16:40:10.416Z,93.50
2023-05-12T16:42:44.538Z,93.40
2023-05-12T16:45:21.336Z,93.70
2023-05-12T16:47:55.614Z,93.80
2023-05-12T16:50:29.869Z,93.80
2023-05-12T16:53:04.009Z,93.70
2023-05-12T16:55:38.149Z,93.90
2023-05-12T16:58:12.403Z,94.10
2023-05-12T17:00:47.901Z,94.20
2023-05-12T17:03:22.891Z,94.30
2023-05-12T17:05:57.062Z,94.10
2023-05-12T17:08:31.191Z,94.30
2023-05-12T17:11:06.566Z,94.50
2023-05-12T17:13:40.776Z,94.70
2023-05-12T17:16:16.390Z,94.80
2023-05-12T17:21:28.231Z,95.30
2023-05-12T17:24:02.775Z,95.40
2023-05-12T17:26:37.741Z,95.50
2023-05-12T17:29:11.980Z,95.80
2023-05-12T17:31:47.459Z,96.10
2023-05-12T17:34:21.677Z,96.10
2023-05-12T17:36:55.961Z,96.20
2023-05-12T17:39:30.124Z,96.00
2023-05-12T17:42:04.623Z,96.20
2023-05-12T17:44:38.911Z,96.40
2023-05-12T17:47:14.421Z,96.70
2023-05-12T17:49:48.907Z,96.50
2023-05-12T17:52:23.300Z,96.80
2023-05-12T17:54:57.863Z,97.00
2023-05-12T17:57:32.100Z,97.00
2023-05-12T18:00:10.323Z,96.90
2023-05-12T18:02:46.555Z,97.00
2023-05-12T18:05:21.362Z,97.20
2023-05-12T18:07:56.236Z,96.90
2023-05-12T18:10:30.550Z,97.20
2023-05-12T18:13:05.215Z,96.80
2023-05-12T18:15:39.396Z,96.70
2023-05-12T18:18:14.996Z,97.00
2023-05-12T18:20:49.144Z,96.60
2023-05-12T18:23:23.308Z,96.80
2023-05-12T18:25:57.480Z,96.70
2023-05-12T18:28:31.588Z,96.90
2023-05-12T18:31:15.111Z,96.80
2023-05-12T18:33:51.748Z,96.80
2023-05-12T18:36:26.383Z,96.90
2023-05-12T18:39:00.490Z,96.90
2023-05-12T18:41:34.643Z,96.90
2023-05-12T18:44:08.921Z,97.00
2023-05-12T18:46:43.363Z,97.20
2023-05-12T18:49:18.882Z,97.20
2023-05-12T18:51:53.015Z,97.40
2023-05-12T18:54:27.305Z,97.20
2023-05-12T18:57:01.515Z,97.30
2023-05-12T18:59:35.777Z,97.30
2023-05-12T19:02:10.454Z,97.40
2023-05-12T19:04:46.497Z,97.40
2023-05-12T19:07:20.751Z,97.30
2023-05-12T19:09:54.846Z,97.50
2023-05-12T19:12:29.943Z,97.50
2023-05-12T19:15:04.352Z,97.40
2023-05-12T19:17:39.541Z,97.60
2023-05-12T19:20:15.179Z,97.50
2023-05-12T19:22:50.460Z,97.60
2023-05-12T19:25:24.741Z,97.50
2023-05-12T19:27:59.162Z,97.60
2023-05-12T19:30:33.316Z,97.60
2023-05-12T19:33:07.709Z,97.70
2023-05-12T19:35:43.422Z,97.70
2023-05-12T19:38:18.564Z,97.50
2023-05-12T19:40:52.756Z,97.50
2023-05-12T19:43:26.845Z,97.30
2023-05-12T19:46:01.044Z,97.60
2023-05-12T19:48:35.133Z,97.70
2023-05-12T19:51:10.754Z,97.60
2023-05-12T19:53:44.860Z,97.70
2023-05-12T19:56:19.774Z,97.60
2023-05-12T19:58:53.873Z,97.70
2023-05-12T20:01:28.294Z,97.70
2023-05-12T20:04:02.750Z,97.80
2023-05-12T20:06:38.372Z,97.90
2023-05-12T20:09:12.586Z,98.00
2023-05-12T20:11:46.660Z,98.00
2023-05-12T20:14:21.315Z,98.00
2023-05-12T20:16:56.953Z,97.90
2023-05-12T20:19:31.969Z,98.10
2023-05-12T20:22:07.606Z,98.10
2023-05-12T20:24:41.752Z,98.20
2023-05-12T20:27:15.896Z,98.20
2023-05-12T20:29:50.059Z,98.30
2023-05-12T20:32:24.243Z,98.30
2023-05-12T20:34:58.748Z,98.60
2023-05-12T20:37:34.526Z,98.10
2023-05-12T20:40:10.750Z,98.20
2023-05-12T20:42:52.986Z,98.30
2023-05-12T20:45:27.081Z,98.50
2023-05-12T20:48:01.321Z,98.40
2023-05-12T20:50:35.450Z,98.70
2023-05-12T20:53:10.939Z,98.40
2023-05-12T20:55:45.445Z,98.40
2023-05-12T20:58:19.522Z,98.40
2023-05-12T21:00:53.707Z,98.30
2023-05-12T21:03:28.223Z,98.50
2023-05-12T21:06:02.849Z,98.50
2023-05-12T21:08:38.298Z,98.60
2023-05-12T21:11:17.037Z,98.60
2023-05-12T21:13:51.139Z,98.50
2023-05-12T21:16:25.951Z,98.40
2023-05-12T21:19:00.071Z,98.50
2023-05-12T21:21:34.148Z,98.40
2023-05-12T21:24:09.663Z,98.50
2023-05-12T21:26:43.741Z,98.40
2023-05-12T21:29:17.976Z,98.40
2023-05-12T21:31:52.268Z,98.40
2023-05-12T21:34:27.716Z,98.50
2023-05-12T21:37:01.845Z,98.70
2023-05-12T21:39:37.236Z,98.60
2023-05-12T21:42:11.366Z,98.70
2023-05-12T21:44:45.412Z,98.70
2023-05-12T21:47:19.714Z,99.10
2023-05-12T21:49:55.584Z,98.70
2023-05-12T21:52:29.650Z,98.70
2023-05-12T21:55:05.688Z,98.70
2023-05-12T21:57:39.802Z,99.00
2023-05-12T22:00:15.168Z,99.10
2023-05-12T22:02:49.501Z,99.00
2023-05-12T22:05:23.665Z,99.00
2023-05-12T22:07:57.751Z,99.20
2023-05-12T22:10:33.270Z,99.30
2023-05-12T22:13:07.424Z,99.60
2023-05-12T22:15:41.989Z,99.80
2023-05-12T22:18:16.246Z,99.60
2023-05-12T22:20:50.403Z,99.90
2023-05-12T22:23:24.514Z,99.90
2023-05-12T22:25:59.992Z,99.90
2023-05-12T22:28:34.058Z,99.90
2023-05-12T22:31:08.185Z,99.90
2023-05-12T22:33:42.307Z,99.90
2023-05-12T22:36:16.691Z,99.90
2023-05-12T22:38:50.773Z,99.90
2023-05-12T22:41:26.251Z,99.90
2023-05-12T22:44:00.393Z,99.90
2023-05-12T22:46:34.497Z,99.90
2023-05-12T22:49:08.622Z,99.90
2023-05-12T22:51:42.683Z,99.90
2023-05-12T22:54:16.721Z,99.90
2023-05-12T22:56:52.293Z,99.90
2023-05-12T22:59:26.465Z,99.90
2023-05-12T23:02:00.543Z,99.90
2023-05-12T23:04:34.673Z,99.90
2023-05-12T23:07:09.903Z,99.90
2023-05-12T23:09:44.007Z,99.90
2023-05-12T23:12:19.390Z,99.90
2023-05-12T23:14:53.550Z,99.90
2023-05-12T23:17:27.638Z,99.90
2023-05-12T23:20:01.767Z,99.90
2023-05-12T23:22:35.854Z,99.90
2023-05-12T23:25:10.742Z,99.90
2023-05-12T23:27:46.232Z,99.90
2023-05-12T23:30:20.507Z,99.90
2023-05-12T23:32:55.064Z,99.90
2023-05-12T23:35:29.313Z,99.90
2023-05-12T23:38:03.423Z,99.90
2023-05-12T23:40:39.136Z,99.90
2023-05-12T23:43:14.654Z,99.90
2023-05-12T23:45:48.785Z,99.90
2023-05-12T23:48:22.945Z,99.90
2023-05-12T23:50:57.004Z,99.90
2023-05-12T23:53:31.275Z,99.90
2023-05-12T23:56:05.947Z,99.90
2023-05-12T23:58:41.848Z,99.90
